createdAt,value
2023-02-23T18:50:39.185Z,8.96
2023-02-23T18:51:39.820Z,8.87
2023-02-23T18:52:39.048Z,8.92
2023-02-23T18:54:38.942Z,8.87
2023-02-23T18:56:38.844Z,8.96
2023-02-23T18:57:38.794Z,8.97
2023-02-23T18:58:38.746Z,8.86
2023-02-23T18:59:38.699Z,9.03
2023-02-23T19:00:38.709Z,8.90
2023-02-23T19:01:38.599Z,8.97
2023-02-23T19:02:38.569Z,8.92
2023-02-23T19:03:38.507Z,9.00
2023-02-23T19:04:38.478Z,8.99
2023-02-23T19:05:38.419Z,8.97
2023-02-23T19:06:38.392Z,9.02
2023-02-23T19:07:38.316Z,9.02
2023-02-23T19:08:38.274Z,8.99
2023-02-23T19:09:38.222Z,8.97
2023-02-23T19:10:38.181Z,8.99
2023-02-23T19:11:38.134Z,8.93
2023-02-23T19:12:38.086Z,8.93
2023-02-23T19:13:38.107Z,9.05
2023-02-23T19:14:49.196Z,8.95
2023-02-23T19:15:37.942Z,8.99
2023-02-23T19:16:37.918Z,9.03
2023-02-23T19:17:37.850Z,9.05
2023-02-23T19:18:37.846Z,9.00
2023-02-23T19:19:37.764Z,9.11
2023-02-23T19:20:37.715Z,9.05
2023-02-23T19:21:37.685Z,9.11
2023-02-23T19:22:37.653Z,9.02
2023-02-23T19:23:37.581Z,9.13
2023-02-23T19:24:38.190Z,9.12
2023-02-23T19:25:37.499Z,9.09
2023-02-23T19:26:37.466Z,9.05
2023-02-23T19:27:37.392Z,9.05
2023-02-23T19:28:37.350Z,9.09
2023-02-23T19:29:37.305Z,9.11
2023-02-23T19:30:37.258Z,9.12
2023-02-23T19:31:37.468Z,8.97
2023-02-23T19:32:37.465Z,9.05
2023-02-23T19:33:37.327Z,9.09
2023-02-23T19:34:37.091Z,9.02
2023-02-23T19:35:37.033Z,9.05
2023-02-23T19:36:36.987Z,9.03
2023-02-23T19:37:36.962Z,9.09
2023-02-23T19:38:36.926Z,9.09
2023-02-23T19:39:36.858Z,9.13
2023-02-23T19:40:36.819Z,9.03
2023-02-23T19:41:36.771Z,9.18
2023-02-23T19:42:36.726Z,9.09
2023-02-23T19:43:36.678Z,9.11
2023-02-23T19:44:36.644Z,9.13
2023-02-23T19:45:36.621Z,9.15
2023-02-23T19:46:36.540Z,9.13
2023-02-23T19:47:36.494Z,9.15
2023-02-23T19:48:36.468Z,9.13
2023-02-23T19:49:36.408Z,9.16
2023-02-23T19:50:36.371Z,9.15
2023-02-23T19:51:36.313Z,9.02
2023-02-23T19:52:36.274Z,9.16
2023-02-23T19:53:36.229Z,9.09
2023-02-23T19:54:36.204Z,9.12
2023-02-23T19:55:36.136Z,9.16
2023-02-23T19:56:36.102Z,9.18
2023-02-23T19:57:36.053Z,9.16
2023-02-23T19:58:36.024Z,9.18
2023-02-23T19:59:35.961Z,9.21
2023-02-23T20:00:35.913Z,9.19
2023-02-23T20:01:35.868Z,9.15
2023-02-23T20:02:35.873Z,9.18
2023-02-23T20:03:35.782Z,9.26
2023-02-23T20:04:35.740Z,9.26
2023-02-23T20:05:35.796Z,9.18
2023-02-23T20:06:35.645Z,9.22
2023-02-23T20:07:35.603Z,9.24
2023-02-23T20:08:35.555Z,9.12
2023-02-23T20:09:35.507Z,9.21
2023-02-23T20:10:35.482Z,9.22
2023-02-23T20:11:35.418Z,9.26
2023-02-23T20:12:35.381Z,9.30
2023-02-23T20:13:35.326Z,9.22
2023-02-23T20:14:35.283Z,9.22
2023-02-23T20:15:35.237Z,9.19
2023-02-23T20:16:35.281Z,9.26
2023-02-23T20:17:35.175Z,9.22
2023-02-23T20:18:35.104Z,9.30
2023-02-23T20:19:35.059Z,9.29
2023-02-23T20:20:35.980Z,9.30
2023-02-23T20:21:35.037Z,9.30
2023-02-23T20:22:34.940Z,9.22
2023-02-23T20:23:34.873Z,9.26
2023-02-23T20:24:34.832Z,9.31
2023-02-23T20:25:34.785Z,9.36
2023-02-23T20:26:34.769Z,9.30
2023-02-23T20:27:34.716Z,9.40
2023-02-23T20:28:34.650Z,9.39
2023-02-23T20:29:34.609Z,9.37
2023-02-23T20:30:34.636Z,9.33
2023-02-23T20:31:34.573Z,9.30
2023-02-23T20:32:34.571Z,9.37
2023-02-23T20:33:34.437Z,9.39
2023-02-23T20:34:34.383Z,9.33
2023-02-23T20:35:34.336Z,9.36
2023-02-23T20:36:34.324Z,9.33
2023-02-23T20:37:34.247Z,9.36
2023-02-23T20:38:34.204Z,9.33
2023-02-23T20:39:34.158Z,9.33
2023-02-23T20:40:34.125Z,9.42
2023-02-23T20:41:34.068Z,9.36
2023-02-23T20:42:34.045Z,9.29
2023-02-23T20:43:33.979Z,9.29
2023-02-23T20:44:33.934Z,9.22
2023-02-23T20:45:33.902Z,9.26
2023-02-23T20:46:33.850Z,9.19
2023-02-23T20:47:33.825Z,9.22
2023-02-23T20:48:33.763Z,9.15
2023-02-23T20:49:33.710Z,9.09
2023-02-23T20:51:33.659Z,9.09
2023-02-23T20:52:33.582Z,9.11
2023-02-23T20:53:33.532Z,9.02
2023-02-23T20:56:33.399Z,8.92
2023-02-23T20:57:33.359Z,8.95
2023-02-23T20:58:33.334Z,8.93
2023-02-23T20:59:33.269Z,8.84
2023-02-23T21:00:33.281Z,8.86
2023-02-23T21:01:33.245Z,8.74
2023-02-23T21:02:33.152Z,8.82
2023-02-23T21:03:33.249Z,8.64
2023-02-23T21:04:33.094Z,8.75
2023-02-23T21:05:33.021Z,8.69
2023-02-23T21:06:32.983Z,8.66
2023-02-23T21:07:32.928Z,8.72
2023-02-23T21:08:32.863Z,8.66
2023-02-23T21:09:32.852Z,8.60
2023-02-23T21:10:32.792Z,8.63
2023-02-23T21:11:32.730Z,8.63
2023-02-23T21:12:32.698Z,8.60
2023-02-23T21:13:32.634Z,8.53
2023-02-23T21:14:34.508Z,8.50
2023-02-23T21:15:32.581Z,8.49
2023-02-23T21:16:32.549Z,8.41
2023-02-23T21:17:32.455Z,8.41
2023-02-23T21:18:32.505Z,8.45
2023-02-23T21:19:32.368Z,8.39
2023-02-23T21:20:32.316Z,8.34
2023-02-23T21:21:32.284Z,8.32
2023-02-23T21:22:32.247Z,8.34
2023-02-23T21:23:32.195Z,8.32
2023-02-23T21:24:32.139Z,8.39
2023-02-23T21:25:32.102Z,8.36
2023-02-23T21:26:32.061Z,8.31
2023-02-23T21:27:32.006Z,8.32
2023-02-23T21:28:31.976Z,8.34
2023-02-23T21:29:31.932Z,8.31
2023-02-23T21:30:31.888Z,8.27
2023-02-23T21:31:31.928Z,8.32
2023-02-23T21:32:31.960Z,8.27
2023-02-23T21:33:31.732Z,8.31
2023-02-23T21:34:31.709Z,8.20
2023-02-23T21:35:31.640Z,8.18
2023-02-23T21:36:31.594Z,8.24
2023-02-23T21:37:31.550Z,8.21
2023-02-23T21:38:31.524Z,8.26
2023-02-23T21:39:31.462Z,8.20
2023-02-23T21:40:31.411Z,8.11
2023-02-23T21:41:31.384Z,8.17
2023-02-23T21:42:31.327Z,8.13
2023-02-23T21:43:31.277Z,8.09
2023-02-23T21:44:31.247Z,8.08
2023-02-23T21:45:31.182Z,8.08
2023-02-23T21:46:31.300Z,8.02
2023-02-23T21:47:31.092Z,7.99
2023-02-23T21:48:31.044Z,8.03
2023-02-23T21:49:31.021Z,8.05
2023-02-23T21:50:30.957Z,8.01
2023-02-23T21:51:30.932Z,7.98
2023-02-23T21:52:30.890Z,7.98
2023-02-23T21:53:30.827Z,7.93
2023-02-23T21:54:30.792Z,7.90
2023-02-23T21:55:30.738Z,7.96
2023-02-23T21:56:30.700Z,7.91
2023-02-23T21:57:30.663Z,7.93
2023-02-23T21:58:30.589Z,7.91
2023-02-23T21:59:30.552Z,7.90
2023-02-23T22:00:30.529Z,7.95
2023-02-23T22:01:30.519Z,7.90
2023-02-23T22:02:30.562Z,7.85
2023-02-23T22:03:30.363Z,7.91
2023-02-23T22:04:30.342Z,7.84
2023-02-23T22:05:30.269Z,7.87
2023-02-23T22:06:30.221Z,7.84
2023-02-23T22:07:30.182Z,7.84
2023-02-23T22:08:30.147Z,7.84
2023-02-23T22:09:30.089Z,7.80
2023-02-23T22:10:30.045Z,7.83
2023-02-23T22:11:30.015Z,7.85
2023-02-23T22:12:29.971Z,7.81
2023-02-23T22:13:29.907Z,7.85
2023-02-23T22:14:29.871Z,7.75
2023-02-23T22:15:29.836Z,7.81
2023-02-23T22:16:29.874Z,7.77
2023-02-23T22:17:29.732Z,7.85
2023-02-23T22:18:29.696Z,7.78
2023-02-23T22:19:29.662Z,7.83
2023-02-23T22:20:29.591Z,7.75
2023-02-23T22:21:29.538Z,7.77
2023-02-23T22:22:29.515Z,7.75
2023-02-23T22:23:29.466Z,7.74
2023-02-23T22:24:29.431Z,7.75
2023-02-23T22:25:29.359Z,7.78
2023-02-23T22:26:29.309Z,7.75
2023-02-23T22:27:29.267Z,7.75
2023-02-23T22:28:29.220Z,7.77
2023-02-23T22:29:29.196Z,7.74
2023-02-23T22:30:29.129Z,7.80
2023-02-23T22:31:29.523Z,7.81
2023-02-23T22:32:29.255Z,7.80
2023-02-23T22:33:28.988Z,7.77
2023-02-23T22:34:28.965Z,7.83
2023-02-23T22:35:28.899Z,7.78
2023-02-23T22:36:28.873Z,7.77
2023-02-23T22:37:28.809Z,7.75
2023-02-23T22:38:28.777Z,7.77
2023-02-23T22:39:28.718Z,7.75
2023-02-23T22:40:28.685Z,7.75
2023-02-23T22:41:28.637Z,7.62
2023-02-23T22:42:28.579Z,7.69
2023-02-23T22:43:28.540Z,7.58
2023-02-23T22:44:28.484Z,7.56
2023-02-23T22:45:28.469Z,7.56
2023-02-23T22:46:28.438Z,7.59
2023-02-23T22:47:28.388Z,7.55
2023-02-23T22:48:28.382Z,7.59
2023-02-23T22:49:28.280Z,7.53
2023-02-23T22:50:28.228Z,7.59
2023-02-23T22:51:28.168Z,7.58
2023-02-23T22:52:28.116Z,7.64
2023-02-23T22:53:28.089Z,7.61
2023-02-23T22:54:28.028Z,7.59
2023-02-23T22:55:27.983Z,7.53
2023-02-23T22:56:27.933Z,7.56
2023-02-23T22:57:27.917Z,7.55
2023-02-23T22:58:27.861Z,7.59
2023-02-23T22:59:27.812Z,7.58
2023-02-23T23:00:27.748Z,7.61
2023-02-23T23:01:27.737Z,7.56
2023-02-23T23:02:27.670Z,7.47
2023-02-23T23:03:27.703Z,7.56
2023-02-23T23:04:27.640Z,7.53
2023-02-23T23:05:27.537Z,7.55
2023-02-23T23:06:27.489Z,7.51
2023-02-23T23:07:27.425Z,7.51
2023-02-23T23:08:27.385Z,7.51
2023-02-23T23:09:27.331Z,7.43
2023-02-23T23:10:27.319Z,7.50
2023-02-23T23:11:27.247Z,7.51
2023-02-23T23:12:27.192Z,7.48
2023-02-23T23:13:27.166Z,7.41
2023-02-23T23:14:27.117Z,7.48
2023-02-23T23:15:27.056Z,7.43
2023-02-23T23:16:32.070Z,7.43
2023-02-23T23:17:27.062Z,7.41
2023-02-23T23:18:26.924Z,7.43
2023-02-23T23:19:26.893Z,7.37
2023-02-23T23:20:26.827Z,7.39
2023-02-23T23:21:26.776Z,7.46
2023-02-23T23:22:26.748Z,7.33
2023-02-23T23:24:26.637Z,7.40
2023-02-23T23:25:28.256Z,7.44
2023-02-23T23:26:26.545Z,7.43
2023-02-23T23:27:26.505Z,7.36
2023-02-23T23:28:26.452Z,7.33
2023-02-23T23:29:26.432Z,7.33
2023-02-23T23:30:26.372Z,7.32
2023-02-23T23:31:26.549Z,7.31
2023-02-23T23:32:26.442Z,7.36
2023-02-23T23:33:26.246Z,7.37
2023-02-23T23:34:26.175Z,7.37
2023-02-23T23:35:26.178Z,7.31
2023-02-23T23:36:26.110Z,7.39
2023-02-23T23:37:26.046Z,7.37
2023-02-23T23:38:26.100Z,7.32
2023-02-23T23:39:26.289Z,7.33
2023-02-23T23:40:25.929Z,7.31
2023-02-23T23:41:25.879Z,7.31
2023-02-23T23:42:25.814Z,7.32
2023-02-23T23:43:25.791Z,7.33
2023-02-23T23:44:25.722Z,7.36
2023-02-23T23:45:26.005Z,7.25
2023-02-23T23:46:25.633Z,7.26
2023-02-23T23:47:25.609Z,7.29
2023-02-23T23:48:25.538Z,7.23
2023-02-23T23:49:25.683Z,7.13
2023-02-23T23:50:25.464Z,7.18
2023-02-23T23:51:25.419Z,7.14
2023-02-23T23:52:25.376Z,7.22
2023-02-23T23:53:25.330Z,7.23
2023-02-23T23:54:25.280Z,7.21
2023-02-23T23:55:25.229Z,7.19
2023-02-23T23:56:25.172Z,7.15
2023-02-23T23:57:25.116Z,7.14
2023-02-23T23:58:25.091Z,7.14
